createdAt,value
2018-07-25T00:00:22.476Z,98138.73
2018-07-25T00:02:50.791Z,98129.20
2018-07-25T00:05:19.588Z,98130.38
2018-07-25T00:07:47.959Z,98134.27
2018-07-25T00:10:16.190Z,98131.73
2018-07-25T00:12:44.551Z,98134.78
2018-07-25T00:15:12.949Z,98129.81
2018-07-25T00:17:41.276Z,98133.91
2018-07-25T00:20:09.461Z,98133.08
2018-07-25T00:22:37.696Z,98134.37
2018-07-25T00:25:06.121Z,98129.84
2018-07-25T00:27:34.515Z,98132.18
2018-07-25T00:30:02.773Z,98133.50
2018-07-25T00:32:31.074Z,98132.00
2018-07-25T00:34:59.363Z,98134.06
2018-07-25T00:37:27.671Z,98132.50
2018-07-25T00:39:56.166Z,98130.13
2018-07-25T00:42:24.456Z,98124.13
2018-07-25T00:44:52.742Z,98126.67
2018-07-25T00:47:21.179Z,98129.41
2018-07-25T00:49:49.457Z,98136.38
2018-07-25T00:52:17.734Z,98133.14
2018-07-25T00:54:46.188Z,98130.56
2018-07-25T00:57:14.383Z,98130.16
2018-07-25T00:59:42.708Z,98130.82
2018-07-25T01:02:10.910Z,98128.89
2018-07-25T01:04:39.144Z,98130.12
2018-07-25T01:07:07.607Z,98131.36
2018-07-25T01:09:35.920Z,98134.83
2018-07-25T01:12:04.192Z,98131.79
2018-07-25T01:14:32.711Z,98140.08
2018-07-25T01:17:00.971Z,98137.95
2018-07-25T01:19:29.148Z,98138.00
2018-07-25T01:21:57.408Z,98139.41
2018-07-25T01:24:25.698Z,98136.27
2018-07-25T01:26:53.994Z,98140.53
2018-07-25T01:29:22.253Z,98144.19
2018-07-25T01:31:50.567Z,98138.89
2018-07-25T01:34:18.836Z,98141.52
2018-07-25T01:36:47.135Z,98141.44
2018-07-25T01:39:15.410Z,98146.47
2018-07-25T01:41:43.711Z,98146.07
2018-07-25T01:44:12.191Z,98143.61
2018-07-25T01:46:40.541Z,98149.09
2018-07-25T01:49:08.864Z,98150.88
2018-07-25T01:51:37.963Z,98153.69
2018-07-25T01:54:06.307Z,98153.69
2018-07-25T01:56:34.548Z,98160.74
2018-07-25T01:59:02.832Z,98157.63
2018-07-25T02:01:31.169Z,98155.25
2018-07-25T02:03:59.367Z,98154.12
2018-07-25T02:06:27.798Z,98156.80
2018-07-25T02:08:57.068Z,98154.76
2018-07-25T02:11:25.351Z,98168.06
2018-07-25T02:13:53.573Z,98160.66
2018-07-25T02:16:22.279Z,98164.31
2018-07-25T02:18:50.735Z,98162.70
2018-07-25T02:21:19.029Z,98161.14
2018-07-25T02:23:47.264Z,98164.81
2018-07-25T02:26:15.505Z,98166.41
2018-07-25T02:28:43.873Z,98165.13
2018-07-25T02:31:12.150Z,98164.81
2018-07-25T02:33:45.512Z,98167.53
2018-07-25T02:36:13.791Z,98168.44
2018-07-25T02:38:42.010Z,98165.44
2018-07-25T02:41:10.440Z,98166.69
2018-07-25T02:43:38.757Z,98169.00
2018-07-25T02:46:07.561Z,98171.10
2018-07-25T02:48:35.775Z,98172.92
2018-07-25T02:51:04.100Z,98174.59
2018-07-25T02:53:32.382Z,98174.66
2018-07-25T02:56:00.794Z,98172.95
2018-07-25T02:58:29.093Z,98172.05
2018-07-25T03:00:57.358Z,98180.78
2018-07-25T03:03:25.596Z,98184.31
2018-07-25T03:05:53.819Z,98186.52
2018-07-25T03:08:22.130Z,98185.84
2018-07-25T03:10:56.119Z,98188.84
2018-07-25T03:13:25.019Z,98187.30
2018-07-25T03:15:59.700Z,98191.69
2018-07-25T03:18:28.343Z,98197.19
2018-07-25T03:20:57.033Z,98192.69
2018-07-25T03:23:25.389Z,98198.62
2018-07-25T03:25:53.874Z,98195.00
2018-07-25T03:28:22.186Z,98199.09
2018-07-25T03:30:50.578Z,98201.16
2018-07-25T03:33:18.976Z,98199.12
2018-07-25T03:35:47.195Z,98205.06
2018-07-25T03:38:15.589Z,98198.77
2018-07-25T03:40:44.069Z,98202.27
2018-07-25T03:43:12.404Z,98206.23
2018-07-25T03:45:40.822Z,98210.19
2018-07-25T03:48:09.119Z,98208.86
2018-07-25T03:50:37.684Z,98209.84
2018-07-25T03:53:06.345Z,98213.92
2018-07-25T03:55:34.631Z,98220.13
2018-07-25T03:58:03.012Z,98216.12
2018-07-25T04:00:31.322Z,98218.26
2018-07-25T04:02:59.752Z,98221.56
2018-07-25T04:05:28.145Z,98221.98
2018-07-25T04:07:56.440Z,98223.34
2018-07-25T04:10:24.716Z,98222.67
2018-07-25T04:12:53.979Z,98221.01
2018-07-25T04:15:22.316Z,98225.77
2018-07-25T04:17:50.649Z,98225.53
2018-07-25T04:20:19.864Z,98225.47
2018-07-25T04:22:48.149Z,98227.41
2018-07-25T04:25:16.514Z,98230.30
2018-07-25T04:27:46.120Z,98227.82
2018-07-25T04:30:15.807Z,98227.63
2018-07-25T04:32:44.630Z,98226.08
2018-07-25T04:35:14.219Z,98232.47
2018-07-25T04:37:43.842Z,98234.72
2018-07-25T04:40:12.248Z,98235.58
2018-07-25T04:42:41.026Z,98239.45
2018-07-25T04:45:10.717Z,98240.22
2018-07-25T04:47:39.262Z,98242.63
2018-07-25T04:50:07.971Z,98247.81
2018-07-25T04:52:36.562Z,98244.78
2018-07-25T04:55:05.013Z,98250.66
2018-07-25T04:57:33.416Z,98244.17
2018-07-25T05:00:01.670Z,98247.19
2018-07-25T05:02:30.052Z,98252.80
2018-07-25T05:04:58.560Z,98251.78
2018-07-25T05:07:26.897Z,98247.39
2018-07-25T05:09:55.212Z,98249.55
2018-07-25T05:12:23.502Z,98252.54
2018-07-25T05:14:51.885Z,98254.37
2018-07-25T05:17:20.428Z,98256.45
2018-07-25T05:19:48.797Z,98254.12
2018-07-25T05:22:17.107Z,98256.34
2018-07-25T05:24:45.405Z,98262.92
2018-07-25T05:27:14.379Z,98264.31
2018-07-25T05:29:43.561Z,98264.00
2018-07-25T05:32:12.280Z,98262.53
2018-07-25T05:34:40.675Z,98266.33
2018-07-25T05:37:08.992Z,98267.89
2018-07-25T05:39:37.298Z,98272.06
2018-07-25T05:42:05.649Z,98267.17
2018-07-25T05:44:34.012Z,98271.94
2018-07-25T05:47:02.203Z,98274.69
2018-07-25T05:49:30.649Z,98274.25
2018-07-25T05:51:58.822Z,98277.37
2018-07-25T05:54:27.102Z,98276.72
2018-07-25T05:56:55.375Z,98279.63
2018-07-25T05:59:23.618Z,98277.73
2018-07-25T06:01:51.270Z,98280.09
2018-07-25T06:04:18.781Z,98279.52
2018-07-25T06:06:46.988Z,98278.84
2018-07-25T06:09:14.536Z,98278.27
2018-07-25T06:11:42.128Z,98284.91
2018-07-25T06:14:09.757Z,98280.52
2018-07-25T06:16:37.157Z,98286.66
2018-07-25T06:19:04.699Z,98282.27
2018-07-25T06:21:32.382Z,98286.30
2018-07-25T06:23:59.906Z,98287.41
2018-07-25T06:26:27.476Z,98281.66
2018-07-25T06:28:55.119Z,98276.92
2018-07-25T06:31:22.672Z,98279.39
2018-07-25T06:33:50.166Z,98283.81
2018-07-25T06:36:17.755Z,98285.27
2018-07-25T06:38:45.264Z,98285.39
2018-07-25T06:41:12.743Z,98285.11
2018-07-25T06:43:40.377Z,98293.34
2018-07-25T06:46:08.077Z,98291.00
2018-07-25T06:48:35.828Z,98289.91
2018-07-25T06:51:04.198Z,98287.78
2018-07-25T06:53:32.433Z,98297.71
2018-07-25T06:56:00.813Z,98295.02
2018-07-25T06:58:29.252Z,98289.78
2018-07-25T07:00:57.646Z,98291.31
2018-07-25T07:03:25.976Z,98292.95
2018-07-25T07:05:54.277Z,98291.37
2018-07-25T07:08:22.531Z,98290.95
2018-07-25T07:10:50.757Z,98296.61
2018-07-25T07:13:19.118Z,98298.70
2018-07-25T07:15:47.533Z,98298.84
2018-07-25T07:18:15.830Z,98298.96
2018-07-25T07:20:44.075Z,98297.87
2018-07-25T07:23:12.592Z,98300.64
2018-07-25T07:25:40.916Z,98299.67
2018-07-25T07:28:09.171Z,98301.52
2018-07-25T07:30:37.819Z,98297.59
2018-07-25T07:33:06.318Z,98305.02
2018-07-25T07:35:34.558Z,98295.59
2018-07-25T07:38:02.778Z,98298.36
2018-07-25T07:40:31.058Z,98306.19
2018-07-25T07:42:59.927Z,98301.31
2018-07-25T07:45:28.268Z,98297.53
2018-07-25T07:47:56.615Z,98297.34
2018-07-25T07:50:25.181Z,98300.91
2018-07-25T07:52:53.401Z,98296.78
2018-07-25T07:55:21.772Z,98294.59
2018-07-25T07:57:50.216Z,98302.71
2018-07-25T08:00:18.544Z,98302.70
2018-07-25T08:02:47.016Z,98295.01
2018-07-25T08:06:25.859Z,98299.90
2018-07-25T08:08:54.267Z,98302.22
2018-07-25T08:11:22.590Z,98303.39
2018-07-25T08:13:51.180Z,98301.19
2018-07-25T08:16:19.588Z,98304.41
2018-07-25T08:18:47.841Z,98301.81
2018-07-25T08:21:16.359Z,98292.73
2018-07-25T08:23:44.831Z,98296.27
2018-07-25T08:26:13.116Z,98296.67
2018-07-25T08:28:41.383Z,98295.17
2018-07-25T08:31:09.642Z,98297.16
2018-07-25T08:33:37.907Z,98293.77
2018-07-25T08:36:06.161Z,98303.08
2018-07-25T08:38:36.992Z,98299.61
2018-07-25T08:41:05.865Z,98301.50
2018-07-25T08:43:34.976Z,98299.13
2018-07-25T08:46:03.522Z,98296.17
2018-07-25T08:48:31.740Z,98297.32
2018-07-25T08:50:59.955Z,98303.66
2018-07-25T08:53:29.051Z,98298.66
2018-07-25T08:55:57.371Z,98294.13
2018-07-25T08:58:25.626Z,98298.96
2018-07-25T09:00:53.863Z,98295.69
2018-07-25T09:03:22.303Z,98299.42
2018-07-25T09:05:50.730Z,98303.89
2018-07-25T09:08:18.958Z,98298.42
2018-07-25T09:10:47.248Z,98300.73
2018-07-25T09:13:15.555Z,98296.70
2018-07-25T09:15:44.291Z,98294.11
2018-07-25T09:18:12.692Z,98290.81
2018-07-25T09:20:41.155Z,98295.44
2018-07-25T09:23:09.391Z,98290.55
2018-07-25T09:25:37.768Z,98291.30
2018-07-25T09:28:06.279Z,98294.95
2018-07-25T09:30:34.523Z,98284.59
2018-07-25T09:33:02.794Z,98289.33
2018-07-25T09:35:31.561Z,98285.97
2018-07-25T09:38:00.935Z,98289.57
2018-07-25T09:40:29.967Z,98286.05
2018-07-25T09:42:58.260Z,98280.78
2018-07-25T09:45:26.467Z,98275.11
2018-07-25T09:47:54.686Z,98278.89
2018-07-25T09:50:22.914Z,98282.16
2018-07-25T09:52:51.256Z,98274.50
2018-07-25T09:55:19.612Z,98267.47
2018-07-25T09:57:47.993Z,98277.42
2018-07-25T10:00:53.270Z,98271.28
2018-07-25T10:03:21.521Z,98273.50
2018-07-25T10:05:49.777Z,98264.98
2018-07-25T10:08:18.633Z,98264.30
2018-07-25T10:10:47.015Z,98266.85
2018-07-25T10:13:29.761Z,98254.60
2018-07-25T10:15:59.463Z,98264.31
2018-07-25T10:18:34.219Z,98252.06
2018-07-25T10:21:02.608Z,98261.74
2018-07-25T10:23:30.863Z,98262.92
2018-07-25T10:25:59.171Z,98256.82
2018-07-25T10:28:27.469Z,98257.66
2018-07-25T10:30:55.724Z,98252.38
2018-07-25T10:33:24.353Z,98254.73
2018-07-25T10:35:52.673Z,98257.63
2018-07-25T10:38:20.905Z,98250.64
2018-07-25T10:40:49.181Z,98250.09
2018-07-25T10:43:17.376Z,98249.41
2018-07-25T10:45:45.858Z,98244.80
2018-07-25T10:48:14.081Z,98247.20
2018-07-25T10:50:42.322Z,98242.72
2018-07-25T10:53:10.549Z,98242.12
2018-07-25T10:55:38.821Z,98234.85
2018-07-25T10:58:07.095Z,98235.49
2018-07-25T11:00:35.338Z,98231.19
2018-07-25T11:03:03.719Z,98231.30
2018-07-25T11:05:32.026Z,98232.97
2018-07-25T11:08:00.247Z,98232.41
2018-07-25T11:10:28.519Z,98224.05
2018-07-25T11:12:56.761Z,98223.43
2018-07-25T11:15:25.074Z,98219.39
2018-07-25T11:17:53.327Z,98219.08
2018-07-25T11:20:21.669Z,98216.30
2018-07-25T11:22:50.091Z,98218.30
2018-07-25T11:25:18.305Z,98207.24
2018-07-25T11:27:46.519Z,98209.17
2018-07-25T11:30:14.717Z,98205.52
2018-07-25T11:32:43.004Z,98205.20
2018-07-25T11:35:11.185Z,98203.69
2018-07-25T11:37:39.988Z,98199.39
2018-07-25T11:40:08.341Z,98193.70
2018-07-25T11:42:36.586Z,98186.19
2018-07-25T11:45:05.069Z,98185.56
2018-07-25T11:47:33.278Z,98184.09
2018-07-25T11:50:01.586Z,98185.45
2018-07-25T11:52:30.009Z,98180.09
2018-07-25T11:54:58.270Z,98185.14
2018-07-25T11:57:26.505Z,98186.68
2018-07-25T11:59:54.769Z,98184.51
2018-07-25T12:02:23.221Z,98170.05
2018-07-25T12:04:51.411Z,98180.09
2018-07-25T12:07:19.809Z,98182.27
2018-07-25T12:09:48.135Z,98174.02
2018-07-25T12:12:16.356Z,98172.22
2018-07-25T12:14:44.652Z,98164.03
2018-07-25T12:17:12.956Z,98168.14
2018-07-25T12:19:41.216Z,98171.77
2018-07-25T12:22:09.434Z,98167.44
2018-07-25T12:24:37.678Z,98165.30
2018-07-25T12:27:05.977Z,98154.83
2018-07-25T12:29:34.239Z,98156.91
2018-07-25T12:32:02.637Z,98152.95
2018-07-25T12:34:30.927Z,98157.03
2018-07-25T12:36:59.315Z,98147.20
2018-07-25T12:39:27.629Z,98145.58
2018-07-25T12:41:55.866Z,98156.63
2018-07-25T12:44:24.110Z,98153.78
2018-07-25T12:46:52.444Z,98148.58
2018-07-25T12:49:20.684Z,98146.63
2018-07-25T12:51:48.978Z,98141.30
2018-07-25T12:54:17.227Z,98142.30
2018-07-25T12:56:45.871Z,98137.27
2018-07-25T12:59:14.154Z,98139.30
2018-07-25T13:01:42.385Z,98133.37
2018-07-25T13:04:10.722Z,98135.36
2018-07-25T13:06:39.306Z,98130.07
2018-07-25T13:09:10.021Z,98124.13
2018-07-25T13:11:38.306Z,98125.50
2018-07-25T13:14:06.906Z,98131.59
2018-07-25T13:16:35.195Z,98130.47
2018-07-25T13:19:04.018Z,98125.50
2018-07-25T13:21:32.230Z,98125.64
2018-07-25T13:24:01.075Z,98123.55
2018-07-25T13:26:29.292Z,98117.20
2018-07-25T13:28:57.646Z,98120.13
2018-07-25T13:31:26.487Z,98123.69
2018-07-25T13:33:54.790Z,98116.34
2018-07-25T13:36:23.041Z,98115.52
2018-07-25T13:38:51.286Z,98125.89
2018-07-25T13:41:19.664Z,98130.19
2018-07-25T13:43:47.939Z,98139.50
2018-07-25T13:46:16.410Z,98131.88
2018-07-25T13:48:44.719Z,98140.00
2018-07-25T13:51:12.913Z,98136.16
2018-07-25T13:53:41.152Z,98128.97
2018-07-25T13:56:09.540Z,98124.20
2018-07-25T13:58:37.781Z,98115.45
2018-07-25T14:01:06.075Z,98112.06
2018-07-25T14:03:34.446Z,98111.91
2018-07-25T14:06:02.851Z,98110.34
2018-07-25T14:08:31.116Z,98113.97
2018-07-25T14:10:59.468Z,98108.36
2018-07-25T14:13:27.768Z,98106.77
2018-07-25T14:15:56.071Z,98101.78
2018-07-25T14:18:24.518Z,98104.69
2018-07-25T14:20:52.864Z,98106.38
2018-07-25T14:23:22.044Z,98101.09
2018-07-25T14:25:50.458Z,98101.73
2018-07-25T14:28:18.737Z,98095.86
2018-07-25T14:30:47.095Z,98094.70
2018-07-25T14:33:15.387Z,98088.77
2018-07-25T14:35:43.624Z,98089.84
2018-07-25T14:38:12.048Z,98092.47
2018-07-25T14:40:40.332Z,98084.60
2018-07-25T14:43:08.664Z,98087.78
2018-07-25T14:45:36.881Z,98087.86
2018-07-25T14:48:05.321Z,98084.47
2018-07-25T14:50:33.658Z,98084.47
2018-07-25T14:53:01.935Z,98085.82
2018-07-25T14:55:30.282Z,98080.74
2018-07-25T14:57:58.536Z,98092.48
2018-07-25T15:00:26.994Z,98087.98
2018-07-25T15:02:55.186Z,98087.80
2018-07-25T15:05:23.589Z,98085.76
2018-07-25T15:07:52.379Z,98085.70
2018-07-25T15:10:20.594Z,98080.44
2018-07-25T15:12:54.371Z,98086.68
2018-07-25T15:15:23.210Z,98083.36
2018-07-25T15:17:51.601Z,98088.66
2018-07-25T15:20:19.830Z,98080.55
2018-07-25T15:22:48.144Z,98077.95
2018-07-25T15:25:16.342Z,98078.63
2018-07-25T15:27:44.616Z,98068.84
2018-07-25T15:30:13.058Z,98070.36
2018-07-25T15:32:42.190Z,98060.61
2018-07-25T15:35:10.949Z,98060.84
2018-07-25T15:37:39.547Z,98060.13
2018-07-25T15:40:08.609Z,98056.39
2018-07-25T15:42:36.911Z,98058.16
2018-07-25T15:45:05.731Z,98049.72
2018-07-25T15:47:34.036Z,98054.34
2018-07-25T15:50:02.277Z,98050.78
2018-07-25T15:52:30.585Z,98055.32
2018-07-25T15:54:58.870Z,98057.16
2018-07-25T15:57:27.170Z,98059.62
2018-07-25T15:59:55.544Z,98051.47
2018-07-25T16:02:25.338Z,98042.93
2018-07-25T16:04:53.987Z,98048.14
2018-07-25T16:07:22.264Z,98040.20
2018-07-25T16:09:50.538Z,98043.28
2018-07-25T16:12:19.382Z,98042.57
2018-07-25T16:14:47.594Z,98045.38
2018-07-25T16:17:15.916Z,98042.46
2018-07-25T16:19:44.145Z,98043.39
2018-07-25T16:22:12.405Z,98031.61
2018-07-25T16:24:40.858Z,98031.72
2018-07-25T16:27:09.141Z,98029.47
2018-07-25T16:29:37.348Z,98023.90
2018-07-25T16:32:05.717Z,98022.83
2018-07-25T16:34:33.961Z,98023.83
2018-07-25T16:37:02.173Z,98020.33
2018-07-25T16:39:30.590Z,98009.04
2018-07-25T16:41:58.798Z,98009.82
2018-07-25T16:44:27.033Z,98016.76
2018-07-25T16:46:55.291Z,98012.47
2018-07-25T16:49:23.507Z,98011.94
2018-07-25T16:51:51.755Z,98023.52
2018-07-25T16:54:20.028Z,98025.78
2018-07-25T16:56:48.375Z,98025.26
2018-07-25T16:59:16.611Z,98024.92
2018-07-25T17:01:44.849Z,98023.12
2018-07-25T17:04:13.170Z,98019.35
2018-07-25T17:06:41.443Z,98021.18
2018-07-25T17:09:11.141Z,98023.53
2018-07-25T17:11:39.359Z,98022.98
2018-07-25T17:14:07.600Z,98020.73
2018-07-25T17:16:35.947Z,98018.39
2018-07-25T17:19:04.243Z,98022.20
2018-07-25T17:21:32.508Z,98027.52
2018-07-25T17:24:00.775Z,98027.47
2018-07-25T17:26:29.049Z,98031.44
2018-07-25T17:28:57.361Z,98030.28
2018-07-25T17:31:25.650Z,98024.58
2018-07-25T17:33:54.009Z,98029.73
2018-07-25T17:36:22.434Z,98028.71
2018-07-25T17:38:50.668Z,98032.12
2018-07-25T17:41:19.046Z,98041.04
2018-07-25T17:43:47.370Z,98047.50
2018-07-25T17:46:15.941Z,98054.72
2018-07-25T17:48:44.285Z,98053.49
2018-07-25T17:51:12.595Z,98058.41
2018-07-25T17:53:40.938Z,98058.89
2018-07-25T17:56:09.333Z,98066.00
2018-07-25T17:58:37.535Z,98071.53
2018-07-25T18:01:06.489Z,98077.66
2018-07-25T18:03:34.834Z,98071.40
2018-07-25T18:06:02.979Z,98070.78
2018-07-25T18:08:31.399Z,98065.89
2018-07-25T18:10:59.833Z,98081.81
2018-07-25T18:13:33.478Z,98075.98
2018-07-25T18:16:01.708Z,98079.22
2018-07-25T18:18:29.934Z,98074.30
2018-07-25T18:20:58.626Z,98082.11
2018-07-25T18:23:26.910Z,98082.33
2018-07-25T18:25:55.292Z,98087.22
2018-07-25T18:28:23.639Z,98089.73
2018-07-25T18:30:52.072Z,98092.61
2018-07-25T18:33:20.594Z,98100.71
2018-07-25T18:35:48.998Z,98103.06
2018-07-25T18:38:17.483Z,98100.34
2018-07-25T18:40:45.759Z,98099.61
2018-07-25T18:43:14.108Z,98106.11
2018-07-25T18:45:42.482Z,98109.28
2018-07-25T18:48:11.001Z,98106.79
2018-07-25T18:50:39.294Z,98114.58
2018-07-25T18:53:07.732Z,98107.15
2018-07-25T18:55:36.112Z,98112.32
2018-07-25T18:58:04.480Z,98110.63
2018-07-25T19:00:32.717Z,98112.15
2018-07-25T19:03:01.584Z,98105.16
2018-07-25T19:05:31.211Z,98107.65
2018-07-25T19:08:00.960Z,98107.12
2018-07-25T19:10:29.418Z,98106.90
2018-07-25T19:12:57.680Z,98111.02
2018-07-25T19:15:28.959Z,98104.83
2018-07-25T19:17:58.158Z,98111.03
2018-07-25T19:20:26.623Z,98107.72
2018-07-25T19:22:54.879Z,98103.80
2018-07-25T19:25:23.280Z,98109.64
2018-07-25T19:27:52.190Z,98113.31
2018-07-25T19:30:20.594Z,98116.63
2018-07-25T19:32:49.123Z,98115.81
2018-07-25T19:35:17.412Z,98119.06
2018-07-25T19:37:45.673Z,98125.03
2018-07-25T19:40:13.992Z,98124.59
2018-07-25T19:42:42.288Z,98129.86
2018-07-25T19:45:10.529Z,98135.47
2018-07-25T19:47:38.981Z,98139.10
2018-07-25T19:50:07.284Z,98138.64
2018-07-25T19:52:35.709Z,98139.89
2018-07-25T19:55:04.016Z,98140.98
2018-07-25T19:57:32.393Z,98139.72
2018-07-25T20:00:00.677Z,98142.33
2018-07-25T20:02:29.100Z,98140.77
2018-07-25T20:04:57.471Z,98146.78
2018-07-25T20:07:25.836Z,98145.62
2018-07-25T20:09:54.080Z,98146.56
2018-07-25T20:12:22.367Z,98146.45
2018-07-25T20:14:56.163Z,98152.63
2018-07-25T20:17:24.380Z,98152.59
2018-07-25T20:19:52.842Z,98152.26
2018-07-25T20:22:21.130Z,98146.98
2018-07-25T20:24:50.059Z,98151.47
2018-07-25T20:27:18.303Z,98154.89
2018-07-25T20:29:46.755Z,98151.71
2018-07-25T20:32:15.567Z,98157.80
2018-07-25T20:34:43.835Z,98158.77
2018-07-25T20:37:12.236Z,98163.28
2018-07-25T20:39:40.482Z,98161.64
2018-07-25T20:42:09.134Z,98166.97
2018-07-25T20:44:37.377Z,98170.38
2018-07-25T20:47:05.682Z,98166.52
2018-07-25T20:49:33.947Z,98179.75
2018-07-25T20:52:02.218Z,98177.45
2018-07-25T20:54:30.500Z,98174.81
2018-07-25T20:57:00.088Z,98177.02
2018-07-25T20:59:28.342Z,98175.07
2018-07-25T21:01:56.972Z,98173.78
2018-07-25T21:13:01.957Z,98183.45
2018-07-25T21:15:30.608Z,98185.13
2018-07-25T21:17:59.131Z,98186.09
2018-07-25T21:20:27.900Z,98184.84
2018-07-25T21:22:56.436Z,98189.17
2018-07-25T21:25:24.829Z,98191.28
2018-07-25T21:27:52.380Z,98195.94
2018-07-25T21:30:21.133Z,98195.77
2018-07-25T21:32:48.864Z,98200.05
2018-07-25T21:35:16.414Z,98195.43
2018-07-25T21:37:44.712Z,98194.86
2018-07-25T21:40:12.302Z,98197.38
2018-07-25T21:42:42.558Z,98195.70
2018-07-25T21:45:10.346Z,98196.01
2018-07-25T21:47:38.696Z,98195.09
2018-07-25T21:50:06.639Z,98201.72
2018-07-25T21:52:34.245Z,98197.47
2018-07-25T21:55:02.193Z,98193.97
2018-07-25T21:57:33.024Z,98194.31
2018-07-25T22:00:02.339Z,98197.63
2018-07-25T22:02:31.650Z,98203.63
2018-07-25T22:05:04.202Z,98199.14
2018-07-25T22:10:15.239Z,98207.03
2018-07-25T22:12:43.600Z,98204.84
2018-07-25T22:15:12.373Z,98201.73
2018-07-25T22:17:41.507Z,98208.08
2018-07-25T22:20:12.065Z,98199.84
2018-07-25T22:22:40.732Z,98203.36
2018-07-25T22:25:09.810Z,98198.47
2018-07-25T22:27:38.704Z,98198.01
2018-07-25T22:30:07.220Z,98194.94
2018-07-25T22:32:35.501Z,98195.54
2018-07-25T22:35:04.257Z,98195.78
2018-07-25T22:37:32.704Z,98195.61
2018-07-25T22:40:00.976Z,98195.61
2018-07-25T22:42:29.149Z,98196.61
2018-07-25T22:44:57.587Z,98197.96
2018-07-25T22:47:25.867Z,98200.03
2018-07-25T22:49:54.154Z,98199.94
2018-07-25T22:52:22.465Z,98205.16
2018-07-25T22:54:50.838Z,98200.73
2018-07-25T22:57:19.087Z,98203.64
2018-07-25T22:59:47.311Z,98200.34
2018-07-25T23:02:15.762Z,98204.83
2018-07-25T23:04:44.043Z,98207.13
2018-07-25T23:07:12.436Z,98205.78
2018-07-25T23:09:40.700Z,98219.33
2018-07-25T23:12:09.132Z,98214.33
2018-07-25T23:14:37.502Z,98223.25
2018-07-25T23:17:06.015Z,98229.31
2018-07-25T23:19:34.280Z,98235.13
2018-07-25T23:22:02.639Z,98224.80
2018-07-25T23:24:31.298Z,98221.41
2018-07-25T23:26:59.568Z,98214.89
2018-07-25T23:29:27.867Z,98224.30
2018-07-25T23:31:56.950Z,98229.07
2018-07-25T23:34:25.357Z,98228.84
2018-07-25T23:36:53.529Z,98218.41
2018-07-25T23:39:21.782Z,98215.22
2018-07-25T23:41:50.075Z,98214.66
2018-07-25T23:44:18.351Z,98215.09
2018-07-25T23:46:46.707Z,98209.81
2018-07-25T23:49:14.934Z,98206.99
2018-07-25T23:51:43.202Z,98203.52
2018-07-25T23:54:11.450Z,98197.27
2018-07-25T23:56:40.255Z,98203.52
2018-07-25T23:59:08.546Z,98205.59
